sensor_id;sensor_type;location;lat;lon;timestamp;temperature;humidity
25688;DHT22;17407;51.120;3.702;2023-06-04T00:00:49;16.00;99.90
25688;DHT22;17407;51.120;3.702;2023-06-04T00:03:15;15.90;99.90
25688;DHT22;17407;51.120;3.702;2023-06-04T00:05:40;15.90;99.90
25688;DHT22;17407;51.120;3.702;2023-06-04T00:08:06;15.80;99.90
25688;DHT22;17407;51.120;3.702;2023-06-04T00:10:32;15.80;99.90
25688;DHT22;17407;51.120;3.702;2023-06-04T00:12:59;15.70;99.90
25688;DHT22;17407;51.120;3.702;2023-06-04T00:15:25;15.70;99.90
25688;DHT22;17407;51.120;3.702;2023-06-04T00:17:51;15.60;99.90
25688;DHT22;17407;51.120;3.702;2023-06-04T00:20:17;15.60;99.90
25688;DHT22;17407;51.120;3.702;2023-06-04T00:22:43;15.60;99.90
25688;DHT22;17407;51.120;3.702;2023-06-04T00:25:09;15.50;99.90
25688;DHT22;17407;51.120;3.702;2023-06-04T00:27:36;15.50;99.90
25688;DHT22;17407;51.120;3.702;2023-06-04T00:30:02;15.50;99.90
25688;DHT22;17407;51.120;3.702;2023-06-04T00:32:28;15.50;99.90
25688;DHT22;17407;51.120;3.702;2023-06-04T00:34:54;15.50;99.90
25688;DHT22;17407;51.120;3.702;2023-06-04T00:37:22;15.40;99.90
25688;DHT22;17407;51.120;3.702;2023-06-04T00:39:48;15.40;99.90
25688;DHT22;17407;51.120;3.702;2023-06-04T00:42:14;15.30;99.90
25688;DHT22;17407;51.120;3.702;2023-06-04T00:44:40;15.30;99.90
25688;DHT22;17407;51.120;3.702;2023-06-04T00:47:20;15.30;99.90
25688;DHT22;17407;51.120;3.702;2023-06-04T00:49:46;15.30;99.90
25688;DHT22;17407;51.120;3.702;2023-06-04T00:52:15;15.20;99.90
25688;DHT22;17407;51.120;3.702;2023-06-04T00:54:41;15.10;99.90
25688;DHT22;17407;51.120;3.702;2023-06-04T00:57:07;15.00;99.90
25688;DHT22;17407;51.120;3.702;2023-06-04T00:59:36;15.00;99.90
25688;DHT22;17407;51.120;3.702;2023-06-04T01:04:49;14.90;99.90
25688;DHT22;17407;51.120;3.702;2023-06-04T01:07:16;14.80;99.90
25688;DHT22;17407;51.120;3.702;2023-06-04T01:09:44;14.80;99.90
25688;DHT22;17407;51.120;3.702;2023-06-04T01:12:11;14.70;99.90
25688;DHT22;17407;51.120;3.702;2023-06-04T01:14:37;14.70;99.90
25688;DHT22;17407;51.120;3.702;2023-06-04T01:17:25;14.60;99.90
25688;DHT22;17407;51.120;3.702;2023-06-04T01:27:56;14.80;99.90
25688;DHT22;17407;51.120;3.702;2023-06-04T01:30:57;14.80;99.90
25688;DHT22;17407;51.120;3.702;2023-06-04T01:33:17;14.70;99.90
25688;DHT22;17407;51.120;3.702;2023-06-04T01:35:44;14.70;99.90
25688;DHT22;17407;51.120;3.702;2023-06-04T01:38:10;14.60;99.90
25688;DHT22;17407;51.120;3.702;2023-06-04T01:40:36;14.60;99.90
25688;DHT22;17407;51.120;3.702;2023-06-04T01:43:02;14.50;99.90
25688;DHT22;17407;51.120;3.702;2023-06-04T01:45:28;14.50;99.90
25688;DHT22;17407;51.120;3.702;2023-06-04T01:47:55;14.50;99.90
25688;DHT22;17407;51.120;3.702;2023-06-04T01:50:21;14.50;99.90
25688;DHT22;17407;51.120;3.702;2023-06-04T01:52:46;14.40;99.90
25688;DHT22;17407;51.120;3.702;2023-06-04T01:55:15;14.30;99.90
25688;DHT22;17407;51.120;3.702;2023-06-04T01:57:42;14.30;99.90
25688;DHT22;17407;51.120;3.702;2023-06-04T02:00:10;14.20;99.90
25688;DHT22;17407;51.120;3.702;2023-06-04T02:02:36;14.20;99.90
25688;DHT22;17407;51.120;3.702;2023-06-04T02:05:06;14.20;99.90
25688;DHT22;17407;51.120;3.702;2023-06-04T02:07:35;14.10;99.90
25688;DHT22;17407;51.120;3.702;2023-06-04T02:10:08;14.20;99.90
25688;DHT22;17407;51.120;3.702;2023-06-04T02:12:36;14.20;99.90
25688;DHT22;17407;51.120;3.702;2023-06-04T02:15:03;14.10;99.90
25688;DHT22;17407;51.120;3.702;2023-06-04T02:17:29;14.10;99.90
25688;DHT22;17407;51.120;3.702;2023-06-04T02:19:58;14.00;99.90
25688;DHT22;17407;51.120;3.702;2023-06-04T02:22:25;14.10;99.90
25688;DHT22;17407;51.120;3.702;2023-06-04T02:24:51;14.00;99.90
25688;DHT22;17407;51.120;3.702;2023-06-04T02:27:17;14.10;99.90
25688;DHT22;17407;51.120;3.702;2023-06-04T02:29:43;14.00;99.90
25688;DHT22;17407;51.120;3.702;2023-06-04T02:32:09;14.00;99.90
25688;DHT22;17407;51.120;3.702;2023-06-04T02:34:35;14.00;99.90
25688;DHT22;17407;51.120;3.702;2023-06-04T02:37:02;14.00;99.90
25688;DHT22;17407;51.120;3.702;2023-06-04T02:39:27;14.00;99.90
25688;DHT22;17407;51.120;3.702;2023-06-04T02:41:54;14.00;99.90
25688;DHT22;17407;51.120;3.702;2023-06-04T02:44:19;13.90;99.90
25688;DHT22;17407;51.120;3.702;2023-06-04T02:46:45;13.90;99.90
25688;DHT22;17407;51.120;3.702;2023-06-04T02:49:11;13.90;99.90
25688;DHT22;17407;51.120;3.702;2023-06-04T02:51:42;13.80;99.90
25688;DHT22;17407;51.120;3.702;2023-06-04T02:54:09;13.90;99.90
25688;DHT22;17407;51.120;3.702;2023-06-04T02:56:36;13.90;99.90
25688;DHT22;17407;51.120;3.702;2023-06-04T02:59:03;13.90;99.90
25688;DHT22;17407;51.120;3.702;2023-06-04T03:01:29;13.90;99.90
25688;DHT22;17407;51.120;3.702;2023-06-04T03:03:55;14.00;99.90
25688;DHT22;17407;51.120;3.702;2023-06-04T03:06:22;14.00;99.90
25688;DHT22;17407;51.120;3.702;2023-06-04T03:08:49;14.00;99.90
25688;DHT22;17407;51.120;3.702;2023-06-04T03:11:16;14.00;99.90
25688;DHT22;17407;51.120;3.702;2023-06-04T03:13:41;14.00;99.90
25688;DHT22;17407;51.120;3.702;2023-06-04T03:16:07;14.00;99.90
25688;DHT22;17407;51.120;3.702;2023-06-04T03:18:35;14.00;99.90
25688;DHT22;17407;51.120;3.702;2023-06-04T03:21:02;14.00;99.90
25688;DHT22;17407;51.120;3.702;2023-06-04T03:23:28;14.00;99.90
25688;DHT22;17407;51.120;3.702;2023-06-04T03:25:54;14.00;99.90
25688;DHT22;17407;51.120;3.702;2023-06-04T03:28:19;14.10;99.90
25688;DHT22;17407;51.120;3.702;2023-06-04T03:30:45;14.10;99.90
25688;DHT22;17407;51.120;3.702;2023-06-04T03:33:11;14.10;99.90
25688;DHT22;17407;51.120;3.702;2023-06-04T03:35:36;14.00;99.90
25688;DHT22;17407;51.120;3.702;2023-06-04T03:38:02;14.00;99.90
25688;DHT22;17407;51.120;3.702;2023-06-04T03:40:28;14.10;99.90
25688;DHT22;17407;51.120;3.702;2023-06-04T03:42:53;14.10;99.90
25688;DHT22;17407;51.120;3.702;2023-06-04T03:45:19;14.00;99.90
25688;DHT22;17407;51.120;3.702;2023-06-04T03:47:45;14.00;99.90
25688;DHT22;17407;51.120;3.702;2023-06-04T03:50:11;14.10;99.90
25688;DHT22;17407;51.120;3.702;2023-06-04T03:52:37;14.10;99.90
25688;DHT22;17407;51.120;3.702;2023-06-04T03:55:03;14.10;99.90
25688;DHT22;17407;51.120;3.702;2023-06-04T03:57:29;14.10;99.90
25688;DHT22;17407;51.120;3.702;2023-06-04T03:59:55;14.10;99.90
25688;DHT22;17407;51.120;3.702;2023-06-04T04:02:21;14.20;99.90
25688;DHT22;17407;51.120;3.702;2023-06-04T04:04:46;14.10;99.90
25688;DHT22;17407;51.120;3.702;2023-06-04T04:07:12;14.10;99.90
25688;DHT22;17407;51.120;3.702;2023-06-04T04:09:38;14.10;99.90
25688;DHT22;17407;51.120;3.702;2023-06-04T04:12:04;14.10;99.90
25688;DHT22;17407;51.120;3.702;2023-06-04T04:14:30;14.00;99.90
25688;DHT22;17407;51.120;3.702;2023-06-04T04:16:55;14.00;99.90
25688;DHT22;17407;51.120;3.702;2023-06-04T04:19:21;14.00;99.90
25688;DHT22;17407;51.120;3.702;2023-06-04T04:21:47;13.90;99.90
25688;DHT22;17407;51.120;3.702;2023-06-04T04:24:26;13.90;99.90
25688;DHT22;17407;51.120;3.702;2023-06-04T04:26:52;13.90;99.90
25688;DHT22;17407;51.120;3.702;2023-06-04T04:29:20;13.90;99.90
25688;DHT22;17407;51.120;3.702;2023-06-04T04:31:49;13.90;99.90
25688;DHT22;17407;51.120;3.702;2023-06-04T04:34:15;14.00;99.90
25688;DHT22;17407;51.120;3.702;2023-06-04T04:36:41;14.00;99.90
25688;DHT22;17407;51.120;3.702;2023-06-04T04:39:06;14.00;99.90
25688;DHT22;17407;51.120;3.702;2023-06-04T04:41:32;13.90;99.90
25688;DHT22;17407;51.120;3.702;2023-06-04T04:44:04;14.00;99.90
25688;DHT22;17407;51.120;3.702;2023-06-04T04:46:31;14.00;99.90
25688;DHT22;17407;51.120;3.702;2023-06-04T04:48:57;14.00;99.90
25688;DHT22;17407;51.120;3.702;2023-06-04T04:51:23;14.00;99.90
25688;DHT22;17407;51.120;3.702;2023-06-04T04:53:48;14.00;99.90
25688;DHT22;17407;51.120;3.702;2023-06-04T04:56:14;14.00;99.90
25688;DHT22;17407;51.120;3.702;2023-06-04T04:58:40;14.00;99.90
25688;DHT22;17407;51.120;3.702;2023-06-04T05:01:06;14.00;99.90
25688;DHT22;17407;51.120;3.702;2023-06-04T05:03:31;14.00;99.90
25688;DHT22;17407;51.120;3.702;2023-06-04T05:05:57;14.00;99.90
25688;DHT22;17407;51.120;3.702;2023-06-04T05:08:22;14.10;99.90
25688;DHT22;17407;51.120;3.702;2023-06-04T05:10:50;14.10;99.90
25688;DHT22;17407;51.120;3.702;2023-06-04T05:13:16;14.10;99.90
25688;DHT22;17407;51.120;3.702;2023-06-04T05:15:43;14.20;99.90
25688;DHT22;17407;51.120;3.702;2023-06-04T05:18:08;14.30;99.90
25688;DHT22;17407;51.120;3.702;2023-06-04T05:20:34;14.30;99.90
25688;DHT22;17407;51.120;3.702;2023-06-04T05:23:03;14.30;99.90
25688;DHT22;17407;51.120;3.702;2023-06-04T05:25:29;14.40;99.90
25688;DHT22;17407;51.120;3.702;2023-06-04T05:27:58;14.40;99.90
25688;DHT22;17407;51.120;3.702;2023-06-04T05:30:24;14.50;99.90
25688;DHT22;17407;51.120;3.702;2023-06-04T05:32:50;14.70;99.90
25688;DHT22;17407;51.120;3.702;2023-06-04T05:35:16;14.60;99.90
25688;DHT22;17407;51.120;3.702;2023-06-04T05:37:42;14.60;99.90
25688;DHT22;17407;51.120;3.702;2023-06-04T05:40:11;14.70;99.90
25688;DHT22;17407;51.120;3.702;2023-06-04T05:42:37;14.80;99.90
25688;DHT22;17407;51.120;3.702;2023-06-04T05:45:04;14.80;99.90
25688;DHT22;17407;51.120;3.702;2023-06-04T05:47:30;14.80;99.90
25688;DHT22;17407;51.120;3.702;2023-06-04T05:49:56;14.90;99.90
25688;DHT22;17407;51.120;3.702;2023-06-04T05:52:22;14.90;99.90
25688;DHT22;17407;51.120;3.702;2023-06-04T05:54:48;14.90;99.90
25688;DHT22;17407;51.120;3.702;2023-06-04T05:57:14;15.00;99.90
25688;DHT22;17407;51.120;3.702;2023-06-04T05:59:40;15.20;99.90
25688;DHT22;17407;51.120;3.702;2023-06-04T06:02:05;15.30;99.90
25688;DHT22;17407;51.120;3.702;2023-06-04T06:04:31;15.40;99.90
25688;DHT22;17407;51.120;3.702;2023-06-04T06:06:57;15.50;99.90
25688;DHT22;17407;51.120;3.702;2023-06-04T06:09:23;15.60;99.90
25688;DHT22;17407;51.120;3.702;2023-06-04T06:11:48;15.70;99.90
25688;DHT22;17407;51.120;3.702;2023-06-04T06:14:14;15.80;99.90
25688;DHT22;17407;51.120;3.702;2023-06-04T06:16:40;15.80;99.90
25688;DHT22;17407;51.120;3.702;2023-06-04T06:19:06;16.00;99.90
25688;DHT22;17407;51.120;3.702;2023-06-04T06:21:32;16.00;99.90
25688;DHT22;17407;51.120;3.702;2023-06-04T06:23:57;16.10;99.90
25688;DHT22;17407;51.120;3.702;2023-06-04T06:26:23;16.10;99.90
25688;DHT22;17407;51.120;3.702;2023-06-04T06:28:50;16.10;99.90
25688;DHT22;17407;51.120;3.702;2023-06-04T06:31:16;16.20;99.90
25688;DHT22;17407;51.120;3.702;2023-06-04T06:33:42;16.10;99.90
25688;DHT22;17407;51.120;3.702;2023-06-04T06:36:09;16.20;99.90
25688;DHT22;17407;51.120;3.702;2023-06-04T06:38:36;16.20;99.90
25688;DHT22;17407;51.120;3.702;2023-06-04T06:41:02;16.30;99.90
25688;DHT22;17407;51.120;3.702;2023-06-04T06:43:27;16.40;99.90
25688;DHT22;17407;51.120;3.702;2023-06-04T06:45:53;16.60;99.90
25688;DHT22;17407;51.120;3.702;2023-06-04T06:48:19;16.80;99.90
25688;DHT22;17407;51.120;3.702;2023-06-04T06:50:44;17.00;99.90
25688;DHT22;17407;51.120;3.702;2023-06-04T06:53:10;17.10;99.90
25688;DHT22;17407;51.120;3.702;2023-06-04T06:55:36;17.20;99.90
25688;DHT22;17407;51.120;3.702;2023-06-04T06:58:01;17.40;99.90
25688;DHT22;17407;51.120;3.702;2023-06-04T07:00:27;17.50;99.90
25688;DHT22;17407;51.120;3.702;2023-06-04T07:02:53;17.60;99.90
25688;DHT22;17407;51.120;3.702;2023-06-04T07:05:19;17.90;99.90
25688;DHT22;17407;51.120;3.702;2023-06-04T07:07:45;18.00;99.90
25688;DHT22;17407;51.120;3.702;2023-06-04T07:10:11;17.90;99.90
25688;DHT22;17407;51.120;3.702;2023-06-04T07:12:38;18.10;99.90
25688;DHT22;17407;51.120;3.702;2023-06-04T07:15:05;18.10;99.90
25688;DHT22;17407;51.120;3.702;2023-06-04T07:17:32;18.40;99.90
25688;DHT22;17407;51.120;3.702;2023-06-04T07:19:57;18.50;99.90
25688;DHT22;17407;51.120;3.702;2023-06-04T07:22:23;18.60;99.90
25688;DHT22;17407;51.120;3.702;2023-06-04T07:24:49;18.60;99.90
25688;DHT22;17407;51.120;3.702;2023-06-04T07:27:15;18.50;99.90
25688;DHT22;17407;51.120;3.702;2023-06-04T07:29:43;18.60;99.90
25688;DHT22;17407;51.120;3.702;2023-06-04T07:32:09;18.70;99.90
25688;DHT22;17407;51.120;3.702;2023-06-04T07:34:34;19.00;99.90
25688;DHT22;17407;51.120;3.702;2023-06-04T07:37:02;19.10;99.90
25688;DHT22;17407;51.120;3.702;2023-06-04T07:39:28;19.30;99.90
25688;DHT22;17407;51.120;3.702;2023-06-04T07:41:54;19.30;99.90
25688;DHT22;17407;51.120;3.702;2023-06-04T07:44:19;19.50;99.90
25688;DHT22;17407;51.120;3.702;2023-06-04T07:46:45;19.50;99.90
25688;DHT22;17407;51.120;3.702;2023-06-04T07:49:11;19.70;99.90
25688;DHT22;17407;51.120;3.702;2023-06-04T07:51:37;19.70;99.90
25688;DHT22;17407;51.120;3.702;2023-06-04T07:54:03;19.90;99.90
25688;DHT22;17407;51.120;3.702;2023-06-04T07:56:28;20.00;99.90
25688;DHT22;17407;51.120;3.702;2023-06-04T07:58:54;20.20;99.90
25688;DHT22;17407;51.120;3.702;2023-06-04T08:01:21;20.30;99.90
25688;DHT22;17407;51.120;3.702;2023-06-04T08:03:47;20.50;99.90
25688;DHT22;17407;51.120;3.702;2023-06-04T08:06:13;20.50;99.90
25688;DHT22;17407;51.120;3.702;2023-06-04T08:08:45;20.80;99.90
25688;DHT22;17407;51.120;3.702;2023-06-04T08:11:14;20.90;99.90
25688;DHT22;17407;51.120;3.702;2023-06-04T08:13:40;21.00;99.90
25688;DHT22;17407;51.120;3.702;2023-06-04T08:16:06;21.20;99.90
25688;DHT22;17407;51.120;3.702;2023-06-04T08:18:33;21.40;99.90
25688;DHT22;17407;51.120;3.702;2023-06-04T08:20:58;21.60;99.90
25688;DHT22;17407;51.120;3.702;2023-06-04T08:23:24;21.90;99.90
25688;DHT22;17407;51.120;3.702;2023-06-04T08:25:49;22.10;99.90
25688;DHT22;17407;51.120;3.702;2023-06-04T08:28:15;22.30;99.90
25688;DHT22;17407;51.120;3.702;2023-06-04T08:30:42;22.50;99.90
25688;DHT22;17407;51.120;3.702;2023-06-04T08:33:08;22.60;99.90
25688;DHT22;17407;51.120;3.702;2023-06-04T08:35:33;22.50;99.90
25688;DHT22;17407;51.120;3.702;2023-06-04T08:37:59;22.80;99.90
25688;DHT22;17407;51.120;3.702;2023-06-04T08:40:25;23.00;98.50
25688;DHT22;17407;51.120;3.702;2023-06-04T08:42:51;23.20;98.10
25688;DHT22;17407;51.120;3.702;2023-06-04T08:45:23;23.20;96.40
25688;DHT22;17407;51.120;3.702;2023-06-04T08:47:50;23.50;96.50
25688;DHT22;17407;51.120;3.702;2023-06-04T08:50:21;23.70;92.80
25688;DHT22;17407;51.120;3.702;2023-06-04T08:52:53;23.90;94.10
25688;DHT22;17407;51.120;3.702;2023-06-04T08:55:20;24.10;91.40
25688;DHT22;17407;51.120;3.702;2023-06-04T08:57:47;24.10;88.80
25688;DHT22;17407;51.120;3.702;2023-06-04T09:00:15;23.90;90.60
25688;DHT22;17407;51.120;3.702;2023-06-04T09:02:41;24.00;91.10
25688;DHT22;17407;51.120;3.702;2023-06-04T09:05:07;24.10;91.20
25688;DHT22;17407;51.120;3.702;2023-06-04T09:07:39;24.20;90.90
25688;DHT22;17407;51.120;3.702;2023-06-04T09:10:09;24.60;87.50
25688;DHT22;17407;51.120;3.702;2023-06-04T09:12:42;24.70;86.30
25688;DHT22;17407;51.120;3.702;2023-06-04T09:15:08;24.80;84.20
25688;DHT22;17407;51.120;3.702;2023-06-04T09:17:34;25.10;82.30
25688;DHT22;17407;51.120;3.702;2023-06-04T09:20:00;25.10;83.60
25688;DHT22;17407;51.120;3.702;2023-06-04T09:22:35;25.40;80.10
25688;DHT22;17407;51.120;3.702;2023-06-04T09:25:04;25.60;77.80
25688;DHT22;17407;51.120;3.702;2023-06-04T09:27:40;25.40;79.30
25688;DHT22;17407;51.120;3.702;2023-06-04T09:30:07;25.40;79.20
25688;DHT22;17407;51.120;3.702;2023-06-04T09:32:34;25.40;77.20
25688;DHT22;17407;51.120;3.702;2023-06-04T09:35:18;25.40;74.00
25688;DHT22;17407;51.120;3.702;2023-06-04T09:37:55;25.80;73.30
25688;DHT22;17407;51.120;3.702;2023-06-04T09:40:21;26.00;72.90
25688;DHT22;17407;51.120;3.702;2023-06-04T09:42:49;25.90;73.40
25688;DHT22;17407;51.120;3.702;2023-06-04T09:45:33;26.00;71.10
25688;DHT22;17407;51.120;3.702;2023-06-04T09:48:00;25.90;71.90
25688;DHT22;17407;51.120;3.702;2023-06-04T09:50:27;26.10;69.80
25688;DHT22;17407;51.120;3.702;2023-06-04T09:52:54;26.10;71.70
25688;DHT22;17407;51.120;3.702;2023-06-04T09:55:20;26.30;69.30
25688;DHT22;17407;51.120;3.702;2023-06-04T09:57:48;26.30;67.90
25688;DHT22;17407;51.120;3.702;2023-06-04T10:00:17;26.60;61.90
25688;DHT22;17407;51.120;3.702;2023-06-04T10:02:44;26.70;65.50
25688;DHT22;17407;51.120;3.702;2023-06-04T10:05:11;26.70;66.80
25688;DHT22;17407;51.120;3.702;2023-06-04T10:07:43;26.80;63.40
25688;DHT22;17407;51.120;3.702;2023-06-04T10:10:15;26.80;64.50
25688;DHT22;17407;51.120;3.702;2023-06-04T10:12:46;27.10;60.60
25688;DHT22;17407;51.120;3.702;2023-06-04T10:15:17;27.00;60.00
25688;DHT22;17407;51.120;3.702;2023-06-04T10:17:43;27.10;61.30
25688;DHT22;17407;51.120;3.702;2023-06-04T10:20:10;27.00;61.50
25688;DHT22;17407;51.120;3.702;2023-06-04T10:22:37;26.80;62.70
25688;DHT22;17407;51.120;3.702;2023-06-04T10:25:03;27.00;58.10
25688;DHT22;17407;51.120;3.702;2023-06-04T10:27:33;27.00;62.10
25688;DHT22;17407;51.120;3.702;2023-06-04T10:30:01;27.00;59.20
25688;DHT22;17407;51.120;3.702;2023-06-04T10:32:29;27.30;60.50
25688;DHT22;17407;51.120;3.702;2023-06-04T10:34:55;27.70;59.60
25688;DHT22;17407;51.120;3.702;2023-06-04T10:37:23;27.80;60.40
25688;DHT22;17407;51.120;3.702;2023-06-04T10:39:53;27.70;59.70
25688;DHT22;17407;51.120;3.702;2023-06-04T10:42:19;27.60;59.50
25688;DHT22;17407;51.120;3.702;2023-06-04T10:44:48;28.00;59.80
25688;DHT22;17407;51.120;3.702;2023-06-04T10:47:25;28.10;57.90
25688;DHT22;17407;51.120;3.702;2023-06-04T10:49:52;28.30;58.10
25688;DHT22;17407;51.120;3.702;2023-06-04T10:52:19;28.80;56.30
25688;DHT22;17407;51.120;3.702;2023-06-04T10:54:45;29.30;56.50
25688;DHT22;17407;51.120;3.702;2023-06-04T10:57:17;29.60;56.00
25688;DHT22;17407;51.120;3.702;2023-06-04T10:59:56;30.20;55.70
25688;DHT22;17407;51.120;3.702;2023-06-04T11:02:22;30.70;55.50
25688;DHT22;17407;51.120;3.702;2023-06-04T11:05:05;31.00;55.50
25688;DHT22;17407;51.120;3.702;2023-06-04T11:07:46;31.00;54.30
25688;DHT22;17407;51.120;3.702;2023-06-04T11:10:13;31.20;53.80
25688;DHT22;17407;51.120;3.702;2023-06-04T11:12:46;31.10;53.20
25688;DHT22;17407;51.120;3.702;2023-06-04T11:15:13;30.80;53.50
25688;DHT22;17407;51.120;3.702;2023-06-04T11:17:53;30.00;54.20
25688;DHT22;17407;51.120;3.702;2023-06-04T11:20:20;29.60;54.50
25688;DHT22;17407;51.120;3.702;2023-06-04T11:22:56;29.90;55.20
25688;DHT22;17407;51.120;3.702;2023-06-04T11:25:24;30.10;53.70
25688;DHT22;17407;51.120;3.702;2023-06-04T11:27:52;29.30;54.20
25688;DHT22;17407;51.120;3.702;2023-06-04T11:30:18;29.00;53.60
25688;DHT22;17407;51.120;3.702;2023-06-04T11:32:44;28.50;55.20
25688;DHT22;17407;51.120;3.702;2023-06-04T11:35:10;28.30;55.20
25688;DHT22;17407;51.120;3.702;2023-06-04T11:37:37;28.40;55.70
25688;DHT22;17407;51.120;3.702;2023-06-04T11:40:14;28.70;54.90
25688;DHT22;17407;51.120;3.702;2023-06-04T11:42:40;29.00;54.50
25688;DHT22;17407;51.120;3.702;2023-06-04T11:45:11;29.60;51.90
25688;DHT22;17407;51.120;3.702;2023-06-04T11:47:37;29.10;52.10
25688;DHT22;17407;51.120;3.702;2023-06-04T11:50:03;28.70;53.90
25688;DHT22;17407;51.120;3.702;2023-06-04T11:52:29;28.30;53.70
25688;DHT22;17407;51.120;3.702;2023-06-04T11:54:55;28.10;53.70
25688;DHT22;17407;51.120;3.702;2023-06-04T11:57:21;28.20;54.30
25688;DHT22;17407;51.120;3.702;2023-06-04T11:59:47;28.60;54.60
25688;DHT22;17407;51.120;3.702;2023-06-04T12:02:13;28.80;53.80
25688;DHT22;17407;51.120;3.702;2023-06-04T12:04:39;28.50;52.40
25688;DHT22;17407;51.120;3.702;2023-06-04T12:07:04;28.30;54.50
25688;DHT22;17407;51.120;3.702;2023-06-04T12:09:32;28.30;52.30
25688;DHT22;17407;51.120;3.702;2023-06-04T12:12:06;28.40;51.50
25688;DHT22;17407;51.120;3.702;2023-06-04T12:14:32;28.40;52.30
25688;DHT22;17407;51.120;3.702;2023-06-04T12:17:02;28.00;52.90
25688;DHT22;17407;51.120;3.702;2023-06-04T12:19:28;28.10;52.30
25688;DHT22;17407;51.120;3.702;2023-06-04T12:22:07;27.90;54.70
25688;DHT22;17407;51.120;3.702;2023-06-04T12:24:34;27.50;54.70
25688;DHT22;17407;51.120;3.702;2023-06-04T12:27:08;27.60;54.70
25688;DHT22;17407;51.120;3.702;2023-06-04T12:29:35;27.90;54.90
25688;DHT22;17407;51.120;3.702;2023-06-04T12:34:34;28.40;52.50
25688;DHT22;17407;51.120;3.702;2023-06-04T12:37:00;28.30;53.40
25688;DHT22;17407;51.120;3.702;2023-06-04T12:39:26;28.40;53.20
25688;DHT22;17407;51.120;3.702;2023-06-04T12:41:51;28.40;52.90
25688;DHT22;17407;51.120;3.702;2023-06-04T12:44:17;28.20;53.10
25688;DHT22;17407;51.120;3.702;2023-06-04T12:46:43;28.00;53.40
25688;DHT22;17407;51.120;3.702;2023-06-04T12:49:08;28.20;53.30
25688;DHT22;17407;51.120;3.702;2023-06-04T12:51:34;28.10;53.40
25688;DHT22;17407;51.120;3.702;2023-06-04T12:54:00;27.90;53.90
25688;DHT22;17407;51.120;3.702;2023-06-04T12:56:26;27.80;54.60
25688;DHT22;17407;51.120;3.702;2023-06-04T12:58:52;27.80;53.70
25688;DHT22;17407;51.120;3.702;2023-06-04T13:01:17;28.10;53.20
25688;DHT22;17407;51.120;3.702;2023-06-04T13:03:43;28.20;53.50
25688;DHT22;17407;51.120;3.702;2023-06-04T13:06:09;28.00;54.10
25688;DHT22;17407;51.120;3.702;2023-06-04T13:08:36;27.90;54.20
25688;DHT22;17407;51.120;3.702;2023-06-04T13:11:02;28.10;53.00
25688;DHT22;17407;51.120;3.702;2023-06-04T13:13:28;28.00;52.50
25688;DHT22;17407;51.120;3.702;2023-06-04T13:15:55;28.30;53.00
25688;DHT22;17407;51.120;3.702;2023-06-04T13:18:21;28.00;53.00
25688;DHT22;17407;51.120;3.702;2023-06-04T13:20:46;28.00;52.90
25688;DHT22;17407;51.120;3.702;2023-06-04T13:23:14;27.60;54.20
25688;DHT22;17407;51.120;3.702;2023-06-04T13:25:40;27.60;56.10
25688;DHT22;17407;51.120;3.702;2023-06-04T13:28:06;27.40;55.00
25688;DHT22;17407;51.120;3.702;2023-06-04T13:30:35;27.70;54.80
25688;DHT22;17407;51.120;3.702;2023-06-04T13:33:01;27.80;54.90
25688;DHT22;17407;51.120;3.702;2023-06-04T13:35:26;27.90;57.00
25688;DHT22;17407;51.120;3.702;2023-06-04T13:37:52;28.20;54.20
25688;DHT22;17407;51.120;3.702;2023-06-04T13:40:18;28.10;54.50
25688;DHT22;17407;51.120;3.702;2023-06-04T13:42:44;28.10;55.70
25688;DHT22;17407;51.120;3.702;2023-06-04T13:45:10;28.20;55.00
25688;DHT22;17407;51.120;3.702;2023-06-04T13:47:36;28.00;54.40
25688;DHT22;17407;51.120;3.702;2023-06-04T13:50:02;28.00;55.80
25688;DHT22;17407;51.120;3.702;2023-06-04T13:52:29;28.10;54.70
25688;DHT22;17407;51.120;3.702;2023-06-04T13:54:54;28.00;54.80
25688;DHT22;17407;51.120;3.702;2023-06-04T13:57:21;27.80;55.30
25688;DHT22;17407;51.120;3.702;2023-06-04T13:59:46;27.80;56.10
25688;DHT22;17407;51.120;3.702;2023-06-04T14:02:12;27.80;55.60
25688;DHT22;17407;51.120;3.702;2023-06-04T14:04:38;27.70;54.40
25688;DHT22;17407;51.120;3.702;2023-06-04T14:07:04;28.00;54.20
25688;DHT22;17407;51.120;3.702;2023-06-04T14:09:31;28.00;54.10
25688;DHT22;17407;51.120;3.702;2023-06-04T14:11:58;28.20;55.10
25688;DHT22;17407;51.120;3.702;2023-06-04T14:14:23;28.30;54.90
25688;DHT22;17407;51.120;3.702;2023-06-04T14:16:49;28.20;55.10
25688;DHT22;17407;51.120;3.702;2023-06-04T14:19:15;28.00;54.60
25688;DHT22;17407;51.120;3.702;2023-06-04T14:21:42;28.10;55.00
25688;DHT22;17407;51.120;3.702;2023-06-04T14:24:08;28.10;55.90
25688;DHT22;17407;51.120;3.702;2023-06-04T14:26:35;27.90;54.20
25688;DHT22;17407;51.120;3.702;2023-06-04T14:29:01;27.70;55.50
25688;DHT22;17407;51.120;3.702;2023-06-04T14:31:27;27.60;55.20
25688;DHT22;17407;51.120;3.702;2023-06-04T14:33:53;27.40;55.30
25688;DHT22;17407;51.120;3.702;2023-06-04T14:36:19;27.60;55.20
25688;DHT22;17407;51.120;3.702;2023-06-04T14:38:45;28.00;54.10
25688;DHT22;17407;51.120;3.702;2023-06-04T14:41:11;27.80;54.40
25688;DHT22;17407;51.120;3.702;2023-06-04T14:43:37;27.60;55.20
25688;DHT22;17407;51.120;3.702;2023-06-04T14:46:03;27.60;55.10
25688;DHT22;17407;51.120;3.702;2023-06-04T14:48:29;27.50;55.80
25688;DHT22;17407;51.120;3.702;2023-06-04T14:50:55;27.40;63.40
25688;DHT22;17407;51.120;3.702;2023-06-04T14:53:22;27.70;67.70
25688;DHT22;17407;51.120;3.702;2023-06-04T14:55:48;27.60;67.60
25688;DHT22;17407;51.120;3.702;2023-06-04T14:58:14;27.70;66.50
25688;DHT22;17407;51.120;3.702;2023-06-04T15:00:41;27.50;66.50
25688;DHT22;17407;51.120;3.702;2023-06-04T15:03:07;27.30;68.40
25688;DHT22;17407;51.120;3.702;2023-06-04T15:05:33;27.00;70.00
25688;DHT22;17407;51.120;3.702;2023-06-04T15:07:59;26.90;70.50
25688;DHT22;17407;51.120;3.702;2023-06-04T15:10:26;26.90;70.00
25688;DHT22;17407;51.120;3.702;2023-06-04T15:12:55;26.70;70.20
25688;DHT22;17407;51.120;3.702;2023-06-04T15:15:21;26.70;69.10
25688;DHT22;17407;51.120;3.702;2023-06-04T15:17:48;26.70;69.70
25688;DHT22;17407;51.120;3.702;2023-06-04T15:20:13;26.60;70.80
25688;DHT22;17407;51.120;3.702;2023-06-04T15:22:39;26.20;70.70
25688;DHT22;17407;51.120;3.702;2023-06-04T15:25:05;26.00;71.70
25688;DHT22;17407;51.120;3.702;2023-06-04T15:27:31;25.90;73.30
25688;DHT22;17407;51.120;3.702;2023-06-04T15:29:57;25.90;73.70
25688;DHT22;17407;51.120;3.702;2023-06-04T15:32:23;26.00;73.50
25688;DHT22;17407;51.120;3.702;2023-06-04T15:34:49;25.90;74.50
25688;DHT22;17407;51.120;3.702;2023-06-04T15:37:15;25.90;74.00
25688;DHT22;17407;51.120;3.702;2023-06-04T15:39:41;25.90;74.70
25688;DHT22;17407;51.120;3.702;2023-06-04T15:42:07;25.60;75.70